createdAt,value
2016-09-21T00:00:47.209Z,0
2016-09-21T00:01:47.173Z,0
2016-09-21T00:02:47.501Z,0
2016-09-21T00:03:47.469Z,0
2016-09-21T00:04:47.223Z,0
2016-09-21T00:05:47.120Z,0
2016-09-21T00:06:47.096Z,0
2016-09-21T00:07:47.100Z,0
2016-09-21T00:08:46.808Z,0
2016-09-21T00:09:47.049Z,0
2016-09-21T00:10:46.718Z,0
2016-09-21T00:11:46.681Z,0
2016-09-21T00:12:47.001Z,0
2016-09-21T00:13:46.983Z,0
2016-09-21T00:14:47.277Z,0
2016-09-21T00:15:46.954Z,0
2016-09-21T00:16:46.689Z,0
2016-09-21T00:17:46.926Z,0
2016-09-21T00:18:46.917Z,0
2016-09-21T00:19:46.892Z,0
2016-09-21T00:20:47.199Z,0
2016-09-21T00:21:46.928Z,0
2016-09-21T00:22:46.830Z,0
2016-09-21T00:23:47.133Z,0
2016-09-21T00:24:46.894Z,0
2016-09-21T00:25:46.473Z,0
2016-09-21T00:26:46.449Z,0
2016-09-21T00:27:46.758Z,0
2016-09-21T00:28:46.417Z,0
2016-09-21T00:29:46.717Z,0
2016-09-21T00:30:46.068Z,0
2016-09-21T00:31:47.009Z,0
2016-09-21T00:32:46.670Z,0
2016-09-21T00:33:46.330Z,0
2016-09-21T00:34:46.974Z,0
2016-09-21T00:35:46.300Z,0
2016-09-21T00:36:46.608Z,0
2016-09-21T00:37:46.269Z,0
2016-09-21T00:38:46.577Z,0
2016-09-21T00:39:46.648Z,0
2016-09-21T00:40:46.221Z,0
2016-09-21T00:41:46.519Z,0
2016-09-21T00:42:46.513Z,0
2016-09-21T00:43:46.807Z,0
2016-09-21T00:44:46.817Z,0
2016-09-21T00:45:46.468Z,0
2016-09-21T00:46:46.445Z,0
2016-09-21T00:47:46.433Z,0
2016-09-21T00:48:46.739Z,0
2016-09-21T00:49:46.432Z,0
2016-09-21T00:50:46.051Z,0
2016-09-21T00:51:46.669Z,0
2016-09-21T00:52:46.678Z,0
2016-09-21T00:53:46.011Z,0
2016-09-21T00:54:46.627Z,0
2016-09-21T00:55:45.969Z,0
2016-09-21T00:56:45.954Z,0
2016-09-21T00:57:46.246Z,0
2016-09-21T00:58:46.560Z,0
2016-09-21T00:59:45.893Z,0
2016-09-21T01:00:46.534Z,0
2016-09-21T01:01:46.188Z,0
2016-09-21T01:02:45.859Z,0
2016-09-21T01:03:46.148Z,0
2016-09-21T01:04:46.139Z,0
2016-09-21T01:05:46.446Z,0
2016-09-21T01:06:46.520Z,0
2016-09-21T01:07:46.417Z,0
2016-09-21T01:08:46.070Z,0
2016-09-21T01:09:46.373Z,0
2016-09-21T01:10:45.735Z,0
2016-09-21T01:11:46.021Z,0
2016-09-21T01:12:46.004Z,0
2016-09-21T01:13:45.665Z,0
2016-09-21T01:14:45.645Z,0
2016-09-21T01:15:45.949Z,0
2016-09-21T01:16:45.948Z,0
2016-09-21T01:17:45.646Z,0
2016-09-21T01:18:45.908Z,0
2016-09-21T01:19:45.568Z,0
2016-09-21T01:20:46.199Z,0
2016-09-21T01:21:46.166Z,0
2016-09-21T01:22:45.499Z,0
2016-09-21T01:23:46.157Z,0
2016-09-21T01:24:46.135Z,0
2016-09-21T01:25:46.116Z,0
2016-09-21T01:26:45.456Z,0
2016-09-21T01:27:46.067Z,0
2016-09-21T01:28:46.056Z,0
2016-09-21T01:29:46.028Z,0
2016-09-21T01:30:46.019Z,0
2016-09-21T01:31:45.729Z,0
2016-09-21T01:32:45.669Z,0
2016-09-21T01:33:45.959Z,0
2016-09-21T01:34:45.955Z,0
2016-09-21T01:35:46.045Z,0
2016-09-21T01:36:45.601Z,0
2016-09-21T01:37:45.580Z,0
2016-09-21T01:38:45.560Z,0
2016-09-21T01:39:45.548Z,0
2016-09-21T01:40:45.634Z,0
2016-09-21T01:41:45.199Z,0
2016-09-21T01:42:45.817Z,0
2016-09-21T01:43:45.795Z,0
2016-09-21T01:44:45.469Z,0
2016-09-21T01:45:45.775Z,0
2016-09-21T01:46:45.843Z,0
2016-09-21T01:47:44.758Z,0
2016-09-21T01:48:45.439Z,0
2016-09-21T01:49:45.698Z,0
2016-09-21T01:50:45.405Z,0
2016-09-21T01:51:45.797Z,0
2016-09-21T01:52:45.386Z,0
2016-09-21T01:53:45.807Z,0
2016-09-21T01:54:45.677Z,0
2016-09-21T01:55:45.640Z,0
2016-09-21T01:56:45.260Z,0
2016-09-21T01:57:45.237Z,0
2016-09-21T01:58:44.908Z,0
2016-09-21T01:59:45.220Z,0
2016-09-21T02:00:45.504Z,0
2016-09-21T02:01:44.857Z,0
2016-09-21T02:02:45.517Z,0
2016-09-21T02:03:45.483Z,0
2016-09-21T02:04:45.444Z,0
2016-09-21T02:05:44.778Z,0
2016-09-21T02:06:44.775Z,0
2016-09-21T02:07:45.070Z,0
2016-09-21T02:08:45.377Z,0
2016-09-21T02:09:45.037Z,0
2016-09-21T02:10:45.361Z,0
2016-09-21T02:11:45.457Z,0
2016-09-21T02:12:44.976Z,0
2016-09-21T02:13:45.385Z,0
2016-09-21T02:14:44.946Z,0
2016-09-21T02:15:45.299Z,0
2016-09-21T02:16:45.226Z,0
2016-09-21T02:17:45.217Z,0
2016-09-21T02:18:44.563Z,0
2016-09-21T02:19:45.226Z,0
2016-09-21T02:20:44.851Z,0
2016-09-21T02:21:45.155Z,0
2016-09-21T02:22:44.811Z,0
2016-09-21T02:23:44.797Z,0
2016-09-21T02:24:45.103Z,0
2016-09-21T02:25:45.079Z,0
2016-09-21T02:26:44.426Z,0
2016-09-21T02:27:45.083Z,0
2016-09-21T02:28:44.711Z,0
2016-09-21T02:29:44.684Z,0
2016-09-21T02:30:44.673Z,0
2016-09-21T02:31:44.656Z,0
2016-09-21T02:32:44.308Z,0
2016-09-21T02:33:44.925Z,0
2016-09-21T02:34:44.937Z,0
2016-09-21T02:35:44.257Z,0
2016-09-21T02:36:44.887Z,0
2016-09-21T02:37:44.542Z,0
2016-09-21T02:38:44.226Z,0
2016-09-21T02:39:44.843Z,0
2016-09-21T02:40:44.814Z,0
2016-09-21T02:41:43.832Z,0
2016-09-21T02:42:44.464Z,0
2016-09-21T02:43:44.440Z,0
2016-09-21T02:44:44.426Z,0
2016-09-21T02:45:44.417Z,0
2016-09-21T02:46:44.404Z,0
2016-09-21T02:47:44.423Z,0
2016-09-21T02:48:44.350Z,0
2016-09-21T02:49:44.445Z,0
2016-09-21T02:50:43.999Z,0
2016-09-21T02:51:44.356Z,0
2016-09-21T02:52:44.616Z,0
2016-09-21T02:53:44.677Z,0
2016-09-21T02:54:44.571Z,0
2016-09-21T02:55:44.283Z,0
2016-09-21T02:56:44.231Z,0
2016-09-21T02:57:44.564Z,0
2016-09-21T02:58:44.181Z,0
2016-09-21T02:59:44.503Z,0
2016-09-21T03:00:43.828Z,0
2016-09-21T03:01:44.473Z,0
2016-09-21T03:02:44.120Z,0
2016-09-21T03:03:44.420Z,0
2016-09-21T03:04:44.085Z,0
2016-09-21T03:05:44.427Z,0
2016-09-21T03:06:44.384Z,0
2016-09-21T03:07:44.353Z,0
2016-09-21T03:08:44.329Z,0
2016-09-21T03:09:44.314Z,0
2016-09-21T03:10:43.991Z,0
2016-09-21T03:11:44.275Z,0
2016-09-21T03:12:43.947Z,0
2016-09-21T03:13:44.238Z,0
2016-09-21T03:14:44.014Z,0
2016-09-21T03:15:44.220Z,0
2016-09-21T03:16:43.609Z,0
2016-09-21T03:17:44.167Z,0
2016-09-21T03:18:43.518Z,0
2016-09-21T03:19:44.158Z,0
2016-09-21T03:20:44.138Z,0
2016-09-21T03:21:44.150Z,0
2016-09-21T03:22:44.094Z,0
2016-09-21T03:23:44.066Z,0
2016-09-21T03:24:44.057Z,0
2016-09-21T03:25:44.057Z,0
2016-09-21T03:26:44.025Z,0
2016-09-21T03:27:44.244Z,0
2016-09-21T03:28:43.338Z,0
2016-09-21T03:29:44.035Z,0
2016-09-21T03:30:43.618Z,0
2016-09-21T03:31:43.929Z,0
2016-09-21T03:32:43.584Z,0
2016-09-21T03:33:43.893Z,0
2016-09-21T03:34:43.556Z,0
2016-09-21T03:35:43.875Z,0
2016-09-21T03:36:43.845Z,0
2016-09-21T03:37:43.829Z,0
2016-09-21T03:38:43.485Z,0
2016-09-21T03:39:43.485Z,0
2016-09-21T03:40:43.439Z,0
2016-09-21T03:41:42.785Z,0
2016-09-21T03:42:43.420Z,0
2016-09-21T03:43:43.389Z,0
2016-09-21T03:44:43.754Z,0
2016-09-21T03:45:43.684Z,0
2016-09-21T03:46:43.656Z,0
2016-09-21T03:47:43.643Z,0
2016-09-21T03:48:42.996Z,0
2016-09-21T03:49:43.609Z,0
2016-09-21T03:50:43.273Z,0
2016-09-21T03:51:43.264Z,0
2016-09-21T03:52:42.913Z,0
2016-09-21T03:53:43.526Z,0
2016-09-21T03:54:43.210Z,0
2016-09-21T03:55:43.494Z,0
2016-09-21T03:56:43.460Z,0
2016-09-21T03:57:43.130Z,0
2016-09-21T03:58:43.431Z,0
2016-09-21T03:59:43.085Z,0
2016-09-21T04:00:43.402Z,0
2016-09-21T04:01:42.742Z,0
2016-09-21T04:02:43.345Z,0
2016-09-21T04:03:43.341Z,0
2016-09-21T04:04:42.694Z,0
2016-09-21T04:05:43.106Z,0
2016-09-21T04:06:43.315Z,0
2016-09-21T04:07:42.977Z,0
2016-09-21T04:08:42.958Z,0
2016-09-21T04:09:43.241Z,0
2016-09-21T04:10:42.949Z,0
2016-09-21T04:11:43.211Z,0
2016-09-21T04:12:43.199Z,0
2016-09-21T04:13:42.880Z,0
2016-09-21T04:14:42.856Z,0
2016-09-21T04:15:42.914Z,0
2016-09-21T04:16:43.137Z,0
2016-09-21T04:17:43.110Z,0
2016-09-21T04:18:42.788Z,0
2016-09-21T04:19:42.517Z,0
2016-09-21T04:20:43.060Z,0
2016-09-21T04:21:42.724Z,0
2016-09-21T04:22:42.721Z,0
2016-09-21T04:23:43.014Z,0
2016-09-21T04:24:42.669Z,0
2016-09-21T04:25:42.951Z,0
2016-09-21T04:26:42.676Z,0
2016-09-21T04:27:42.608Z,0
2016-09-21T04:28:42.979Z,0
2016-09-21T04:29:42.586Z,0
2016-09-21T04:30:42.880Z,0
2016-09-21T04:31:41.908Z,0
2016-09-21T04:32:42.843Z,0
2016-09-21T04:33:42.505Z,0
2016-09-21T04:34:42.502Z,0
2016-09-21T04:35:42.497Z,0
2016-09-21T04:36:42.144Z,0
2016-09-21T04:37:42.436Z,0
2016-09-21T04:38:42.756Z,0
2016-09-21T04:39:42.397Z,0
2016-09-21T04:40:42.400Z,4
2016-09-21T04:41:42.708Z,0
2016-09-21T04:42:42.346Z,0
2016-09-21T04:43:42.326Z,4
2016-09-21T04:44:42.027Z,0
2016-09-21T04:45:42.311Z,4
2016-09-21T04:46:41.981Z,4
2016-09-21T04:47:42.262Z,4
2016-09-21T04:48:42.568Z,4
2016-09-21T04:49:42.549Z,4
2016-09-21T04:50:41.567Z,8
2016-09-21T04:51:42.518Z,8
2016-09-21T04:52:41.850Z,8
2016-09-21T04:53:42.510Z,12
2016-09-21T04:54:42.127Z,16
2016-09-21T04:55:42.135Z,16
2016-09-21T04:56:41.469Z,20
2016-09-21T04:57:42.079Z,24
2016-09-21T04:58:42.109Z,32
2016-09-21T04:59:41.737Z,36
2016-09-21T05:00:41.720Z,40
2016-09-21T05:01:42.346Z,48
2016-09-21T05:02:42.317Z,60
2016-09-21T05:03:42.297Z,64
2016-09-21T05:04:41.640Z,72
2016-09-21T05:05:41.629Z,84
2016-09-21T05:06:42.257Z,96
2016-09-21T05:07:41.267Z,100
2016-09-21T05:08:42.251Z,108
2016-09-21T05:09:42.279Z,120
2016-09-21T05:10:41.608Z,128
2016-09-21T05:11:41.828Z,136
2016-09-21T05:12:41.828Z,148
2016-09-21T05:13:41.799Z,160
2016-09-21T05:14:41.775Z,176
2016-09-21T05:15:41.814Z,188
2016-09-21T05:16:41.428Z,208
2016-09-21T05:17:41.721Z,228
2016-09-21T05:18:42.064Z,248
2016-09-21T05:19:42.015Z,276
2016-09-21T05:20:41.701Z,300
2016-09-21T05:21:41.977Z,328
2016-09-21T05:22:41.314Z,356
2016-09-21T05:23:41.607Z,384
2016-09-21T05:24:41.606Z,412
2016-09-21T05:25:41.600Z,444
2016-09-21T05:26:41.560Z,484
2016-09-21T05:27:41.540Z,524
2016-09-21T05:28:41.555Z,556
2016-09-21T05:29:41.537Z,580
2016-09-21T05:30:41.828Z,620
2016-09-21T05:31:41.794Z,668
2016-09-21T05:32:41.790Z,724
2016-09-21T05:33:41.111Z,768
2016-09-21T05:34:41.416Z,808
2016-09-21T05:35:41.460Z,840
2016-09-21T05:36:41.707Z,868
2016-09-21T05:37:41.470Z,908
2016-09-21T05:38:41.348Z,944
2016-09-21T05:39:41.007Z,992
2016-09-21T05:40:41.367Z,1040
2016-09-21T05:41:41.306Z,1088
2016-09-21T05:42:41.280Z,1132
2016-09-21T05:43:41.261Z,1176
2016-09-21T05:44:40.590Z,1228
2016-09-21T05:45:41.274Z,1284
2016-09-21T05:46:41.202Z,1344
2016-09-21T05:47:41.177Z,1408
2016-09-21T05:48:40.848Z,1480
2016-09-21T05:49:41.149Z,1552
2016-09-21T05:50:41.127Z,1628
2016-09-21T05:51:40.798Z,1704
2016-09-21T05:52:41.201Z,1776
2016-09-21T05:53:41.406Z,1840
2016-09-21T05:54:41.389Z,1900
2016-09-21T05:55:40.752Z,1964
2016-09-21T05:56:40.708Z,2032
2016-09-21T05:57:41.047Z,2092
2016-09-21T05:58:41.080Z,2156
2016-09-21T05:59:41.115Z,2212
2016-09-21T06:00:40.631Z,2272
2016-09-21T06:01:41.244Z,2332
2016-09-21T06:02:41.247Z,2388
2016-09-21T06:03:40.909Z,2444
2016-09-21T06:04:41.220Z,2500
2016-09-21T06:05:40.871Z,2560
2016-09-21T06:06:41.169Z,2620
2016-09-21T06:07:41.144Z,2680
2016-09-21T06:08:41.146Z,2744
2016-09-21T06:09:41.115Z,2808
2016-09-21T06:10:41.098Z,2864
2016-09-21T06:11:40.752Z,2924
2016-09-21T06:12:40.811Z,2960
2016-09-21T06:13:41.042Z,3008
2016-09-21T06:14:41.050Z,3068
2016-09-21T06:15:40.700Z,3120
2016-09-21T06:16:41.019Z,3184
2016-09-21T06:17:40.969Z,3252
2016-09-21T06:18:40.637Z,3324
2016-09-21T06:19:40.637Z,3408
2016-09-21T06:20:40.609Z,3488
2016-09-21T06:21:40.600Z,3568
2016-09-21T06:22:40.247Z,3644
2016-09-21T06:23:40.897Z,3728
2016-09-21T06:24:40.636Z,3804
2016-09-21T06:25:40.197Z,3896
2016-09-21T06:26:40.496Z,4000
2016-09-21T06:27:40.169Z,4112
2016-09-21T06:28:40.157Z,4224
2016-09-21T06:29:40.839Z,4340
2016-09-21T06:30:40.758Z,4452
2016-09-21T06:31:40.740Z,4580
2016-09-21T06:32:40.397Z,4692
2016-09-21T06:33:40.048Z,4800
2016-09-21T06:34:40.036Z,4920
2016-09-21T06:35:40.356Z,5036
2016-09-21T06:36:40.019Z,5148
2016-09-21T06:37:41.599Z,5268
2016-09-21T06:38:40.287Z,5384
2016-09-21T06:39:40.599Z,5508
2016-09-21T06:40:39.737Z,5672
2016-09-21T06:41:39.911Z,5888
2016-09-21T06:42:40.222Z,6828
2016-09-21T06:43:40.213Z,9388
2016-09-21T06:44:40.295Z,7436
2016-09-21T06:45:40.179Z,7168
2016-09-21T06:46:40.163Z,7632
2016-09-21T06:47:39.823Z,9740
2016-09-21T06:48:40.454Z,27072
2016-09-21T06:49:40.434Z,40640
2016-09-21T06:50:39.907Z,38464
2016-09-21T06:51:40.073Z,38240
2016-09-21T06:52:39.749Z,41952
2016-09-21T06:53:40.065Z,47232
2016-09-21T06:54:40.358Z,47744
2016-09-21T06:55:40.047Z,45472
2016-09-21T06:56:40.341Z,44672
2016-09-21T06:57:39.973Z,47360
2016-09-21T06:58:39.754Z,48448
2016-09-21T06:59:39.967Z,47040
2016-09-21T07:00:39.967Z,46432
2016-09-21T07:01:39.964Z,48928
2016-09-21T07:02:40.318Z,51584
2016-09-21T07:03:39.586Z,52256
2016-09-21T07:04:39.937Z,50464
2016-09-21T07:05:39.878Z,48000
2016-09-21T07:06:40.174Z,47648
2016-09-21T07:07:40.279Z,52704
2016-09-21T07:08:39.859Z,43104
2016-09-21T07:09:39.494Z,21248
2016-09-21T07:10:39.912Z,11004
2016-09-21T07:11:39.464Z,10136
2016-09-21T07:12:40.128Z,9692
2016-09-21T07:13:39.765Z,9420
2016-09-21T07:14:39.811Z,9292
2016-09-21T07:15:39.753Z,9252
2016-09-21T07:16:40.142Z,9244
2016-09-21T07:17:39.770Z,9280
2016-09-21T07:18:39.723Z,9332
2016-09-21T07:19:39.366Z,9380
2016-09-21T07:20:39.409Z,9456
2016-09-21T07:21:39.334Z,9528
2016-09-21T07:22:40.012Z,9608
2016-09-21T07:23:39.635Z,9732
2016-09-21T07:24:39.617Z,9908
2016-09-21T07:25:39.396Z,10112
2016-09-21T07:26:39.604Z,10324
2016-09-21T07:27:39.592Z,10556
2016-09-21T07:28:39.906Z,10768
2016-09-21T07:29:39.893Z,10876
2016-09-21T07:30:39.889Z,10912
2016-09-21T07:31:39.532Z,10972
2016-09-21T07:32:39.214Z,11036
2016-09-21T07:33:39.532Z,11112
2016-09-21T07:34:39.524Z,11332
2016-09-21T07:35:39.828Z,11964
2016-09-21T07:36:39.655Z,15136
2016-09-21T07:37:39.213Z,31360
2016-09-21T07:38:39.780Z,50688
2016-09-21T07:39:39.783Z,63264
2016-09-21T07:40:39.693Z,64000
2016-09-21T07:41:39.757Z,65696
2016-09-21T07:42:39.433Z,68384
2016-09-21T07:43:39.442Z,68192
2016-09-21T07:44:39.731Z,66848
2016-09-21T07:45:39.406Z,63264
2016-09-21T07:46:39.455Z,60832
2016-09-21T07:47:39.704Z,66976
2016-09-21T07:48:39.737Z,75072
2016-09-21T07:49:39.711Z,71744
2016-09-21T07:50:39.723Z,64864
2016-09-21T07:51:39.775Z,65440
2016-09-21T07:52:39.683Z,71392
2016-09-21T07:53:39.022Z,72864
2016-09-21T07:54:39.349Z,69120
2016-09-21T07:55:39.352Z,65376
2016-09-21T07:56:39.340Z,69792
2016-09-21T07:57:39.668Z,73568
2016-09-21T07:58:39.433Z,72224
2016-09-21T07:59:39.318Z,73184
2016-09-21T08:00:39.008Z,72576
2016-09-21T08:01:38.989Z,68224
2016-09-21T08:02:39.333Z,65984
2016-09-21T08:03:39.129Z,71808
2016-09-21T08:04:39.663Z,77888
2016-09-21T08:05:39.297Z,69984
2016-09-21T08:06:39.375Z,65760
2016-09-21T08:07:39.308Z,68416
2016-09-21T08:08:39.289Z,72192
2016-09-21T08:09:39.043Z,69664
2016-09-21T08:10:39.311Z,71136
2016-09-21T08:11:39.599Z,61696
2016-09-21T08:12:38.677Z,57312
2016-09-21T08:13:38.979Z,56160
2016-09-21T08:14:38.962Z,57664
2016-09-21T08:15:39.586Z,61248
2016-09-21T08:16:39.369Z,59840
2016-09-21T08:17:39.583Z,64928
2016-09-21T08:18:39.288Z,69600
2016-09-21T08:19:38.666Z,69312
2016-09-21T08:20:39.647Z,66816
2016-09-21T08:21:39.577Z,71808
2016-09-21T08:22:39.665Z,73120
2016-09-21T08:23:39.250Z,67552
2016-09-21T08:24:39.601Z,70528
2016-09-21T08:25:39.166Z,71392
2016-09-21T08:26:39.297Z,65376
2016-09-21T08:27:38.908Z,61280
2016-09-21T08:28:39.550Z,64544
2016-09-21T08:29:39.599Z,69696
2016-09-21T08:30:39.237Z,70880
2016-09-21T08:31:39.228Z,63552
2016-09-21T08:32:38.899Z,61952
2016-09-21T08:33:39.220Z,68224
2016-09-21T08:34:39.208Z,68064
2016-09-21T08:35:38.897Z,62432
2016-09-21T08:36:39.316Z,66624
2016-09-21T08:37:39.580Z,71584
2016-09-21T08:38:39.336Z,67968
2016-09-21T08:39:39.767Z,67712
2016-09-21T08:40:38.876Z,72736
2016-09-21T08:41:38.876Z,69920
2016-09-21T08:42:39.510Z,68736
2016-09-21T08:43:39.297Z,68960
2016-09-21T08:44:39.280Z,68672
2016-09-21T08:45:39.224Z,66784
2016-09-21T08:46:39.192Z,69280
2016-09-21T08:47:39.636Z,74080
2016-09-21T08:48:39.185Z,71488
2016-09-21T08:49:39.194Z,73792
2016-09-21T08:50:39.192Z,72096
2016-09-21T08:51:39.186Z,70464
2016-09-21T08:52:39.517Z,70240
2016-09-21T08:53:39.506Z,71968
2016-09-21T08:54:39.227Z,68704
2016-09-21T08:55:39.157Z,65440
2016-09-21T08:56:39.482Z,68928
2016-09-21T08:57:39.173Z,70400
2016-09-21T08:58:39.495Z,68512
2016-09-21T08:59:39.487Z,67712
2016-09-21T09:00:39.188Z,69152
2016-09-21T09:01:39.154Z,70336
2016-09-21T09:02:38.846Z,67680
2016-09-21T09:03:39.486Z,65152
2016-09-21T09:04:39.166Z,67424
2016-09-21T09:05:39.165Z,67520
2016-09-21T09:06:38.525Z,64992
2016-09-21T09:07:39.162Z,64416
2016-09-21T09:08:39.136Z,68704
2016-09-21T09:09:38.831Z,69056
2016-09-21T09:10:39.161Z,66912
2016-09-21T09:11:39.496Z,69504
2016-09-21T09:12:38.831Z,71968
2016-09-21T09:13:39.154Z,70208
2016-09-21T09:14:39.152Z,66752
2016-09-21T09:15:39.157Z,66432
2016-09-21T09:16:39.157Z,65024
2016-09-21T09:17:39.206Z,60704
2016-09-21T09:18:39.143Z,61344
2016-09-21T09:19:38.498Z,60512
2016-09-21T09:20:39.148Z,63264
2016-09-21T09:21:38.849Z,65568
2016-09-21T09:22:38.834Z,67296
2016-09-21T09:23:39.518Z,65472
2016-09-21T09:24:39.134Z,61024
2016-09-21T09:25:39.460Z,60896
2016-09-21T09:26:38.821Z,61568
2016-09-21T09:27:39.147Z,60800
2016-09-21T09:28:39.505Z,64512
2016-09-21T09:29:38.824Z,62048
2016-09-21T09:30:39.168Z,61856
2016-09-21T09:31:38.824Z,60128
2016-09-21T09:32:39.156Z,60224
2016-09-21T09:33:39.468Z,60384
2016-09-21T09:34:39.244Z,59328
2016-09-21T09:35:39.453Z,60480
2016-09-21T09:36:38.820Z,58272
2016-09-21T09:37:39.139Z,61568
2016-09-21T09:38:39.460Z,58944
2016-09-21T09:39:39.133Z,59872
2016-09-21T09:40:39.467Z,58688
2016-09-21T09:41:38.813Z,56032
2016-09-21T09:42:39.460Z,56032
2016-09-21T09:43:39.451Z,55424
2016-09-21T09:44:39.163Z,58848
2016-09-21T09:45:39.127Z,56768
2016-09-21T09:46:39.552Z,55712
2016-09-21T09:47:38.798Z,54528
2016-09-21T09:48:39.169Z,53600
2016-09-21T09:49:39.121Z,54432
2016-09-21T09:50:39.485Z,53472
2016-09-21T09:51:39.122Z,54592
2016-09-21T09:52:39.127Z,53120
2016-09-21T09:53:39.129Z,52416
2016-09-21T09:54:38.784Z,50816
2016-09-21T09:55:38.892Z,50624
2016-09-21T09:56:39.453Z,50144
2016-09-21T09:57:39.227Z,51008
2016-09-21T09:58:39.437Z,51616
2016-09-21T09:59:39.431Z,51040
2016-09-21T10:00:39.106Z,48992
2016-09-21T10:01:39.140Z,45600
2016-09-21T10:02:39.109Z,45024
2016-09-21T10:03:39.186Z,45504
2016-09-21T10:04:39.092Z,43776
2016-09-21T10:05:39.102Z,46112
2016-09-21T10:06:39.429Z,45216
2016-09-21T10:07:39.198Z,40416
2016-09-21T10:08:39.130Z,41952
2016-09-21T10:09:39.067Z,42304
2016-09-21T10:10:39.075Z,38944
2016-09-21T10:11:39.395Z,38112
2016-09-21T10:12:39.151Z,35264
2016-09-21T10:13:39.463Z,36736
2016-09-21T10:14:39.150Z,40192
2016-09-21T10:15:39.414Z,36064
2016-09-21T10:16:39.063Z,36352
2016-09-21T10:17:39.390Z,42592
2016-09-21T10:18:38.743Z,41632
2016-09-21T10:19:39.070Z,36800
2016-09-21T10:20:39.095Z,36416
2016-09-21T10:21:39.047Z,37888
2016-09-21T10:22:39.039Z,39232
2016-09-21T10:23:38.722Z,37568
2016-09-21T10:24:38.939Z,33184
2016-09-21T10:25:39.039Z,31712
2016-09-21T10:26:38.403Z,30816
2016-09-21T10:27:39.010Z,30496
2016-09-21T10:28:39.335Z,29344
2016-09-21T10:29:38.689Z,28064
2016-09-21T10:30:39.330Z,28000
2016-09-21T10:31:39.337Z,28448
2016-09-21T10:32:39.011Z,27968
2016-09-21T10:33:38.982Z,26624
2016-09-21T10:34:39.059Z,26208
2016-09-21T10:35:39.299Z,28864
2016-09-21T10:36:38.654Z,30336
2016-09-21T10:37:39.299Z,27104
2016-09-21T10:38:38.753Z,25536
2016-09-21T10:39:39.299Z,23488
2016-09-21T10:40:39.271Z,27584
2016-09-21T10:41:38.949Z,35840
2016-09-21T10:42:38.959Z,48480
2016-09-21T10:43:38.987Z,29152
2016-09-21T10:44:38.959Z,19808
2016-09-21T10:45:39.276Z,18112
2016-09-21T10:46:39.305Z,17184
2016-09-21T10:47:38.950Z,17024
2016-09-21T10:48:38.608Z,18304
2016-09-21T10:49:38.902Z,19648
2016-09-21T10:50:38.592Z,19872
2016-09-21T10:51:38.914Z,20256
2016-09-21T10:52:39.257Z,21664
2016-09-21T10:53:39.201Z,24672
2016-09-21T10:54:38.553Z,24096
2016-09-21T10:55:39.200Z,14732
2016-09-21T10:56:39.205Z,11448
2016-09-21T10:57:38.857Z,11324
2016-09-21T10:58:38.848Z,11196
2016-09-21T10:59:38.531Z,11296
2016-09-21T11:00:38.531Z,11448
2016-09-21T11:01:38.845Z,11492
2016-09-21T11:02:38.834Z,11560
2016-09-21T11:03:39.160Z,11632
2016-09-21T11:04:38.821Z,11740
2016-09-21T11:05:39.116Z,11856
2016-09-21T11:06:38.791Z,12004
2016-09-21T11:07:38.493Z,11992
2016-09-21T11:08:38.822Z,11792
2016-09-21T11:09:38.788Z,11152
2016-09-21T11:10:38.841Z,10960
2016-09-21T11:11:38.790Z,10924
2016-09-21T11:12:39.078Z,11096
2016-09-21T11:13:38.442Z,10980
2016-09-21T11:15:39.073Z,10524
2016-09-21T11:16:38.407Z,8916
2016-09-21T11:17:38.731Z,10080
2016-09-21T11:18:38.412Z,10368
2016-09-21T11:19:39.049Z,10316
2016-09-21T11:20:38.410Z,10240
2016-09-21T11:21:39.023Z,10168
2016-09-21T11:22:39.017Z,10208
2016-09-21T11:23:38.365Z,10084
2016-09-21T11:24:38.677Z,9960
2016-09-21T11:25:38.983Z,9972
2016-09-21T11:26:38.990Z,9960
2016-09-21T11:27:38.666Z,9904
2016-09-21T11:28:38.962Z,9812
2016-09-21T11:29:38.664Z,9856
2016-09-21T11:30:38.637Z,9844
2016-09-21T11:31:38.642Z,9844
2016-09-21T11:32:38.316Z,9816
2016-09-21T11:33:38.632Z,9784
2016-09-21T11:34:38.937Z,9772
2016-09-21T11:35:37.960Z,9772
2016-09-21T11:36:38.927Z,9836
2016-09-21T11:37:38.911Z,9736
2016-09-21T11:38:38.633Z,9668
2016-09-21T11:39:38.575Z,9600
2016-09-21T11:40:38.257Z,9716
2016-09-21T11:41:38.562Z,9812
2016-09-21T11:42:38.886Z,9768
2016-09-21T11:43:38.561Z,9752
2016-09-21T11:44:38.875Z,9676
2016-09-21T11:45:38.599Z,9576
2016-09-21T11:46:38.555Z,9680
2016-09-21T11:47:38.852Z,9712
2016-09-21T11:48:38.506Z,9724
2016-09-21T11:49:38.194Z,9772
2016-09-21T11:50:38.501Z,9840
2016-09-21T11:51:38.483Z,9880
2016-09-21T11:52:38.807Z,9856
2016-09-21T11:53:38.177Z,9816
2016-09-21T11:54:38.491Z,9796
2016-09-21T11:55:38.460Z,9812
2016-09-21T11:56:38.236Z,9824
2016-09-21T11:57:38.780Z,9864
2016-09-21T11:58:38.773Z,9880
2016-09-21T11:59:38.768Z,9960
2016-09-21T12:00:38.763Z,9908
2016-09-21T12:01:38.751Z,9872
2016-09-21T12:02:38.674Z,9916
2016-09-21T12:03:38.733Z,9944
2016-09-21T12:04:38.423Z,9872
2016-09-21T12:05:38.782Z,9848
2016-09-21T12:06:38.072Z,9816
2016-09-21T12:07:38.206Z,9824
2016-09-21T12:08:38.375Z,9800
2016-09-21T12:09:38.073Z,9748
2016-09-21T12:10:38.776Z,9612
2016-09-21T12:11:38.370Z,9556
2016-09-21T12:12:38.034Z,9412
2016-09-21T12:13:38.650Z,9520
2016-09-21T12:14:38.330Z,9488
2016-09-21T12:15:38.116Z,9580
2016-09-21T12:16:38.319Z,9592
2016-09-21T12:17:38.626Z,9536
2016-09-21T12:18:38.642Z,9376
2016-09-21T12:19:38.298Z,9504
2016-09-21T12:20:38.632Z,9416
2016-09-21T12:21:38.605Z,9368
2016-09-21T12:22:38.288Z,9304
2016-09-21T12:23:38.265Z,9368
2016-09-21T12:24:38.572Z,9472
2016-09-21T12:25:38.256Z,9376
2016-09-21T12:26:38.030Z,9400
2016-09-21T12:27:38.228Z,9300
2016-09-21T12:28:38.573Z,9264
2016-09-21T12:29:38.548Z,9288
2016-09-21T12:30:37.927Z,9300
2016-09-21T12:31:38.535Z,9192
2016-09-21T12:32:38.190Z,9180
2016-09-21T12:33:38.204Z,9176
2016-09-21T12:34:38.196Z,9208
2016-09-21T12:35:38.501Z,9140
2016-09-21T12:36:38.501Z,9132
2016-09-21T12:37:38.174Z,9132
2016-09-21T12:38:38.153Z,9096
2016-09-21T12:39:38.462Z,9052
2016-09-21T12:40:38.472Z,9172
2016-09-21T12:41:38.129Z,8848
2016-09-21T12:42:37.805Z,8920
2016-09-21T12:43:38.132Z,9068
2016-09-21T12:44:37.902Z,9032
2016-09-21T12:45:37.782Z,8836
2016-09-21T12:46:38.092Z,9116
2016-09-21T12:47:38.401Z,9156
2016-09-21T12:48:38.482Z,9108
2016-09-21T12:49:38.081Z,9148
2016-09-21T12:50:38.071Z,9056
2016-09-21T12:51:38.092Z,9096
2016-09-21T12:52:38.073Z,9108
2016-09-21T12:53:38.409Z,9180
2016-09-21T12:54:37.822Z,9088
2016-09-21T12:55:38.339Z,9116
2016-09-21T12:56:38.445Z,9228
2016-09-21T12:57:38.011Z,9184
2016-09-21T12:58:38.317Z,9044
2016-09-21T12:59:37.987Z,9224
2016-09-21T13:00:38.336Z,9080
2016-09-21T13:01:37.657Z,9020
2016-09-21T13:02:37.654Z,9092
2016-09-21T13:03:38.009Z,9048
2016-09-21T13:04:37.730Z,8976
2016-09-21T13:05:38.009Z,8928
2016-09-21T13:06:38.244Z,9000
2016-09-21T13:07:37.670Z,8720
2016-09-21T13:08:37.598Z,8532
2016-09-21T13:09:37.602Z,8832
2016-09-21T13:10:37.901Z,8888
2016-09-21T13:11:37.920Z,8864
2016-09-21T13:12:38.210Z,8772
2016-09-21T13:13:37.620Z,8908
2016-09-21T13:14:38.200Z,9036
2016-09-21T13:15:38.179Z,9036
2016-09-21T13:16:38.196Z,8920
2016-09-21T13:17:37.533Z,8940
2016-09-21T13:18:37.532Z,8968
2016-09-21T13:19:37.871Z,8956
2016-09-21T13:20:38.134Z,8864
2016-09-21T13:21:38.120Z,8864
2016-09-21T13:22:38.124Z,8932
2016-09-21T13:23:37.470Z,9024
2016-09-21T13:24:37.805Z,8952
2016-09-21T13:25:37.781Z,8796
2016-09-21T13:26:37.762Z,8788
2016-09-21T13:27:37.459Z,8952
2016-09-21T13:28:38.063Z,9072
2016-09-21T13:29:37.780Z,9024
2016-09-21T13:30:38.080Z,9032
2016-09-21T13:31:38.054Z,8984
2016-09-21T13:32:37.730Z,8836
2016-09-21T13:33:37.730Z,8776
2016-09-21T13:34:37.830Z,8856
2016-09-21T13:35:37.779Z,8956
2016-09-21T13:36:38.122Z,9032
2016-09-21T13:37:37.695Z,9036
2016-09-21T13:38:37.459Z,8936
2016-09-21T13:39:37.347Z,8956
2016-09-21T13:40:37.973Z,8944
2016-09-21T13:41:38.333Z,8888
2016-09-21T13:42:37.988Z,8868